Hinsdale, New York
Current Conditions -  °F | °C
As of 12:15 AM on Monday 20 Oct 2014 (Local Time) from KOLE Reporting Station
Broken Clouds Broken Clouds  
Wind Chill: 28°   Ceiling: 12000
Heat Index: 34°   Visibility: 10mi
Dew Point: 34°   Wind: 7mph
Humidity: 100%   Direction: 210°SSW
Pressure: 30"   Gusts: NA
Location:  42.16°N, 78.38°W
Report Text: KOLE 200415Z AUTO 21006KT 10SM BKN120 01/01 A3000 RMK AO2
Loading
Personal Weather Stations






























Interactive Weather Map
Tropical Storm Tracking
New forecast layout! Learn more

10-Day Weather Forecast

Advertisements
Track Severe Weather on mobile